sensor_id;sensor_type;location;lat;lon;timestamp;P1;durP1;ratioP1;P2;durP2;ratioP2
20423;SDS011;10371;49.042;8.002;2022-09-09T00:02:10;2.60;;;1.45;;
20423;SDS011;10371;49.042;8.002;2022-09-09T00:03:23;3.45;;;1.70;;
20423;SDS011;10371;49.042;8.002;2022-09-09T00:04:28;2.63;;;1.83;;
20423;SDS011;10371;49.042;8.002;2022-09-09T00:06:52;1.98;;;1.48;;
20423;SDS011;10371;49.042;8.002;2022-09-09T00:07:59;4.78;;;1.88;;
20423;SDS011;10371;49.042;8.002;2022-09-09T00:09:10;1.70;;;1.60;;
20423;SDS011;10371;49.042;8.002;2022-09-09T00:10:21;2.25;;;1.92;;
20423;SDS011;10371;49.042;8.002;2022-09-09T00:11:38;1.92;;;1.73;;
20423;SDS011;10371;49.042;8.002;2022-09-09T00:12:47;3.47;;;2.05;;
20423;SDS011;10371;49.042;8.002;2022-09-09T00:13:57;4.05;;;2.00;;
20423;SDS011;10371;49.042;8.002;2022-09-09T00:15:02;2.63;;;1.80;;
20423;SDS011;10371;49.042;8.002;2022-09-09T00:16:22;3.53;;;1.95;;
20423;SDS011;10371;49.042;8.002;2022-09-09T00:18:52;2.45;;;2.00;;
20423;SDS011;10371;49.042;8.002;2022-09-09T00:19:56;1.75;;;1.60;;
20423;SDS011;10371;49.042;8.002;2022-09-09T00:21:06;4.53;;;1.75;;
20423;SDS011;10371;49.042;8.002;2022-09-09T00:22:19;2.47;;;1.60;;
20423;SDS011;10371;49.042;8.002;2022-09-09T00:23:30;2.55;;;1.80;;
20423;SDS011;10371;49.042;8.002;2022-09-09T00:24:38;3.08;;;1.80;;
20423;SDS011;10371;49.042;8.002;2022-09-09T00:25:49;2.88;;;1.75;;
20423;SDS011;10371;49.042;8.002;2022-09-09T00:27:06;2.83;;;1.80;;
20423;SDS011;10371;49.042;8.002;2022-09-09T00:28:20;2.42;;;1.90;;
20423;SDS011;10371;49.042;8.002;2022-09-09T00:30:40;2.45;;;1.88;;
20423;SDS011;10371;49.042;8.002;2022-09-09T00:31:41;2.55;;;2.00;;
20423;SDS011;10371;49.042;8.002;2022-09-09T00:32:42;2.58;;;1.88;;
20423;SDS011;10371;49.042;8.002;2022-09-09T00:33:44;2.47;;;2.22;;
20423;SDS011;10371;49.042;8.002;2022-09-09T00:34:51;3.95;;;1.90;;
20423;SDS011;10371;49.042;8.002;2022-09-09T00:35:59;4.63;;;2.10;;
20423;SDS011;10371;49.042;8.002;2022-09-09T00:37:00;5.93;;;2.05;;
20423;SDS011;10371;49.042;8.002;2022-09-09T00:38:10;2.90;;;2.10;;
20423;SDS011;10371;49.042;8.002;2022-09-09T00:39:30;2.35;;;1.90;;
20423;SDS011;10371;49.042;8.002;2022-09-09T00:41:09;3.28;;;2.03;;
20423;SDS011;10371;49.042;8.002;2022-09-09T00:43:28;4.07;;;1.88;;
20423;SDS011;10371;49.042;8.002;2022-09-09T00:44:33;6.70;;;2.15;;
20423;SDS011;10371;49.042;8.002;2022-09-09T00:45:48;5.78;;;2.10;;
20423;SDS011;10371;49.042;8.002;2022-09-09T00:48:06;7.50;;;2.47;;
20423;SDS011;10371;49.042;8.002;2022-09-09T00:49:30;3.22;;;2.90;;
20423;SDS011;10371;49.042;8.002;2022-09-09T00:57:51;4.50;;;2.40;;
20423;SDS011;10371;49.042;8.002;2022-09-09T00:59:08;4.30;;;2.60;;
20423;SDS011;10371;49.042;8.002;2022-09-09T01:00:27;5.00;;;2.40;;
20423;SDS011;10371;49.042;8.002;2022-09-09T01:01:31;5.40;;;2.10;;
20423;SDS011;10371;49.042;8.002;2022-09-09T01:02:39;7.72;;;2.47;;
20423;SDS011;10371;49.042;8.002;2022-09-09T01:04:02;3.97;;;2.55;;
20423;SDS011;10371;49.042;8.002;2022-09-09T01:05:16;3.58;;;2.40;;
20423;SDS011;10371;49.042;8.002;2022-09-09T01:06:38;3.75;;;2.72;;
20423;SDS011;10371;49.042;8.002;2022-09-09T01:07:39;7.95;;;2.97;;
20423;SDS011;10371;49.042;8.002;2022-09-09T01:08:56;4.53;;;2.60;;
20423;SDS011;10371;49.042;8.002;2022-09-09T01:13:19;6.65;;;2.53;;
20423;SDS011;10371;49.042;8.002;2022-09-09T01:15:34;3.97;;;2.10;;
20423;SDS011;10371;49.042;8.002;2022-09-09T01:16:36;4.15;;;2.55;;
20423;SDS011;10371;49.042;8.002;2022-09-09T01:19:19;5.90;;;2.20;;
20423;SDS011;10371;49.042;8.002;2022-09-09T01:24:35;2.58;;;1.92;;
20423;SDS011;10371;49.042;8.002;2022-09-09T01:27:14;5.97;;;2.10;;
20423;SDS011;10371;49.042;8.002;2022-09-09T01:28:19;3.67;;;1.85;;
20423;SDS011;10371;49.042;8.002;2022-09-09T01:29:25;3.90;;;2.22;;
20423;SDS011;10371;49.042;8.002;2022-09-09T01:30:25;3.50;;;2.00;;
20423;SDS011;10371;49.042;8.002;2022-09-09T01:32:55;3.03;;;2.08;;
20423;SDS011;10371;49.042;8.002;2022-09-09T01:33:58;3.03;;;1.95;;
20423;SDS011;10371;49.042;8.002;2022-09-09T01:34:59;8.02;;;2.10;;
20423;SDS011;10371;49.042;8.002;2022-09-09T01:36:00;3.45;;;2.50;;
20423;SDS011;10371;49.042;8.002;2022-09-09T01:37:10;5.72;;;2.20;;
20423;SDS011;10371;49.042;8.002;2022-09-09T01:38:12;4.35;;;2.08;;
20423;SDS011;10371;49.042;8.002;2022-09-09T01:39:14;2.90;;;2.03;;
20423;SDS011;10371;49.042;8.002;2022-09-09T01:40:14;4.88;;;2.40;;
20423;SDS011;10371;49.042;8.002;2022-09-09T01:41:15;7.18;;;2.22;;
20423;SDS011;10371;49.042;8.002;2022-09-09T01:42:15;3.85;;;2.20;;
20423;SDS011;10371;49.042;8.002;2022-09-09T01:43:16;6.50;;;2.92;;
20423;SDS011;10371;49.042;8.002;2022-09-09T01:44:17;6.25;;;2.40;;
20423;SDS011;10371;49.042;8.002;2022-09-09T01:46:47;2.90;;;2.00;;
20423;SDS011;10371;49.042;8.002;2022-09-09T01:47:47;6.55;;;2.55;;
20423;SDS011;10371;49.042;8.002;2022-09-09T01:48:49;4.00;;;2.25;;
20423;SDS011;10371;49.042;8.002;2022-09-09T01:49:52;5.03;;;2.53;;
20423;SDS011;10371;49.042;8.002;2022-09-09T01:50:52;5.57;;;2.58;;
20423;SDS011;10371;49.042;8.002;2022-09-09T01:51:53;5.57;;;2.22;;
20423;SDS011;10371;49.042;8.002;2022-09-09T01:52:59;6.65;;;2.63;;
20423;SDS011;10371;49.042;8.002;2022-09-09T01:54:01;5.25;;;2.75;;
20423;SDS011;10371;49.042;8.002;2022-09-09T01:55:03;3.58;;;2.15;;
20423;SDS011;10371;49.042;8.002;2022-09-09T01:59:18;4.88;;;2.03;;
20423;SDS011;10371;49.042;8.002;2022-09-09T02:00:21;2.42;;;1.80;;
20423;SDS011;10371;49.042;8.002;2022-09-09T02:04:18;4.03;;;2.00;;
20423;SDS011;10371;49.042;8.002;2022-09-09T02:06:42;2.35;;;2.00;;
20423;SDS011;10371;49.042;8.002;2022-09-09T02:07:47;3.15;;;1.85;;
20423;SDS011;10371;49.042;8.002;2022-09-09T02:08:50;3.20;;;1.73;;
20423;SDS011;10371;49.042;8.002;2022-09-09T02:10:00;3.53;;;2.20;;
20423;SDS011;10371;49.042;8.002;2022-09-09T02:11:11;6.05;;;2.45;;
20423;SDS011;10371;49.042;8.002;2022-09-09T02:12:14;4.07;;;2.38;;
20423;SDS011;10371;49.042;8.002;2022-09-09T02:13:18;4.38;;;2.40;;
20423;SDS011;10371;49.042;8.002;2022-09-09T02:14:22;7.60;;;2.67;;
20423;SDS011;10371;49.042;8.002;2022-09-09T02:15:29;4.50;;;2.22;;
20423;SDS011;10371;49.042;8.002;2022-09-09T02:16:50;4.53;;;2.25;;
20423;SDS011;10371;49.042;8.002;2022-09-09T02:17:57;3.83;;;2.15;;
20423;SDS011;10371;49.042;8.002;2022-09-09T02:19:03;3.13;;;2.38;;
20423;SDS011;10371;49.042;8.002;2022-09-09T02:20:12;3.70;;;1.80;;
20423;SDS011;10371;49.042;8.002;2022-09-09T02:21:14;3.88;;;2.00;;
20423;SDS011;10371;49.042;8.002;2022-09-09T02:22:17;3.55;;;1.92;;
20423;SDS011;10371;49.042;8.002;2022-09-09T02:23:22;3.92;;;1.63;;
20423;SDS011;10371;49.042;8.002;2022-09-09T02:24:22;3.53;;;1.85;;
20423;SDS011;10371;49.042;8.002;2022-09-09T02:25:23;3.75;;;1.75;;
20423;SDS011;10371;49.042;8.002;2022-09-09T02:26:28;3.63;;;1.77;;
20423;SDS011;10371;49.042;8.002;2022-09-09T02:27:28;2.22;;;1.70;;
20423;SDS011;10371;49.042;8.002;2022-09-09T02:28:29;2.53;;;1.58;;
20423;SDS011;10371;49.042;8.002;2022-09-09T02:29:39;3.58;;;1.88;;
20423;SDS011;10371;49.042;8.002;2022-09-09T02:30:41;2.67;;;1.58;;
20423;SDS011;10371;49.042;8.002;2022-09-09T02:31:45;2.67;;;1.55;;
20423;SDS011;10371;49.042;8.002;2022-09-09T02:32:50;2.80;;;1.60;;
20423;SDS011;10371;49.042;8.002;2022-09-09T02:34:00;4.55;;;2.00;;
20423;SDS011;10371;49.042;8.002;2022-09-09T02:35:04;2.65;;;1.60;;
20423;SDS011;10371;49.042;8.002;2022-09-09T02:36:08;2.22;;;1.50;;
20423;SDS011;10371;49.042;8.002;2022-09-09T02:37:11;2.92;;;1.60;;
20423;SDS011;10371;49.042;8.002;2022-09-09T02:38:15;2.80;;;1.60;;
20423;SDS011;10371;49.042;8.002;2022-09-09T02:39:17;2.83;;;1.60;;
20423;SDS011;10371;49.042;8.002;2022-09-09T02:40:17;3.70;;;1.58;;
20423;SDS011;10371;49.042;8.002;2022-09-09T02:41:20;3.45;;;1.92;;
20423;SDS011;10371;49.042;8.002;2022-09-09T02:42:26;2.35;;;1.50;;
20423;SDS011;10371;49.042;8.002;2022-09-09T02:43:30;1.75;;;1.65;;
20423;SDS011;10371;49.042;8.002;2022-09-09T02:44:31;2.50;;;1.60;;
20423;SDS011;10371;49.042;8.002;2022-09-09T02:46:07;2.25;;;1.42;;
20423;SDS011;10371;49.042;8.002;2022-09-09T02:47:06;4.13;;;1.85;;
20423;SDS011;10371;49.042;8.002;2022-09-09T02:48:32;3.47;;;1.80;;
20423;SDS011;10371;49.042;8.002;2022-09-09T02:52:30;2.38;;;1.60;;
20423;SDS011;10371;49.042;8.002;2022-09-09T02:54:39;2.85;;;1.83;;
20423;SDS011;10371;49.042;8.002;2022-09-09T02:57:08;3.40;;;1.75;;
20423;SDS011;10371;49.042;8.002;2022-09-09T02:58:13;2.65;;;1.60;;
20423;SDS011;10371;49.042;8.002;2022-09-09T02:59:19;2.75;;;1.80;;
20423;SDS011;10371;49.042;8.002;2022-09-09T03:00:27;2.35;;;1.38;;
20423;SDS011;10371;49.042;8.002;2022-09-09T03:01:28;2.78;;;1.35;;
20423;SDS011;10371;49.042;8.002;2022-09-09T03:02:28;1.50;;;1.40;;
20423;SDS011;10371;49.042;8.002;2022-09-09T03:03:28;3.78;;;1.50;;
20423;SDS011;10371;49.042;8.002;2022-09-09T03:04:29;7.32;;;1.52;;
20423;SDS011;10371;49.042;8.002;2022-09-09T03:05:31;3.05;;;1.55;;
20423;SDS011;10371;49.042;8.002;2022-09-09T03:06:31;3.55;;;1.55;;
20423;SDS011;10371;49.042;8.002;2022-09-09T03:07:32;3.35;;;1.38;;
20423;SDS011;10371;49.042;8.002;2022-09-09T03:08:33;3.90;;;1.38;;
20423;SDS011;10371;49.042;8.002;2022-09-09T03:09:33;3.45;;;1.25;;
20423;SDS011;10371;49.042;8.002;2022-09-09T03:10:34;2.72;;;1.30;;
20423;SDS011;10371;49.042;8.002;2022-09-09T03:11:34;1.80;;;1.30;;
20423;SDS011;10371;49.042;8.002;2022-09-09T03:12:35;2.08;;;1.35;;
20423;SDS011;10371;49.042;8.002;2022-09-09T03:13:35;3.92;;;1.45;;
20423;SDS011;10371;49.042;8.002;2022-09-09T03:14:37;2.30;;;1.27;;
20423;SDS011;10371;49.042;8.002;2022-09-09T03:15:38;2.50;;;1.33;;
20423;SDS011;10371;49.042;8.002;2022-09-09T03:16:38;5.03;;;1.38;;
20423;SDS011;10371;49.042;8.002;2022-09-09T03:17:38;2.25;;;1.30;;
20423;SDS011;10371;49.042;8.002;2022-09-09T03:18:39;2.95;;;1.45;;
20423;SDS011;10371;49.042;8.002;2022-09-09T03:19:39;3.80;;;1.75;;
20423;SDS011;10371;49.042;8.002;2022-09-09T03:20:40;4.60;;;1.67;;
20423;SDS011;10371;49.042;8.002;2022-09-09T03:21:42;2.67;;;1.40;;
20423;SDS011;10371;49.042;8.002;2022-09-09T03:22:42;2.05;;;1.33;;
20423;SDS011;10371;49.042;8.002;2022-09-09T03:23:44;5.00;;;1.70;;
20423;SDS011;10371;49.042;8.002;2022-09-09T03:24:45;4.22;;;1.80;;
20423;SDS011;10371;49.042;8.002;2022-09-09T03:25:47;3.65;;;1.80;;
20423;SDS011;10371;49.042;8.002;2022-09-09T03:26:48;3.38;;;1.60;;
20423;SDS011;10371;49.042;8.002;2022-09-09T03:27:50;5.07;;;2.20;;
20423;SDS011;10371;49.042;8.002;2022-09-09T03:28:54;2.75;;;1.60;;
20423;SDS011;10371;49.042;8.002;2022-09-09T03:29:54;5.95;;;2.17;;
20423;SDS011;10371;49.042;8.002;2022-09-09T03:30:57;4.25;;;1.77;;
20423;SDS011;10371;49.042;8.002;2022-09-09T03:31:59;2.15;;;1.58;;
20423;SDS011;10371;49.042;8.002;2022-09-09T03:32:59;3.75;;;1.80;;
20423;SDS011;10371;49.042;8.002;2022-09-09T03:33:59;4.60;;;2.00;;
20423;SDS011;10371;49.042;8.002;2022-09-09T03:35:00;3.58;;;1.52;;
20423;SDS011;10371;49.042;8.002;2022-09-09T03:36:00;2.80;;;1.80;;
20423;SDS011;10371;49.042;8.002;2022-09-09T03:37:00;2.33;;;1.50;;
20423;SDS011;10371;49.042;8.002;2022-09-09T03:38:01;3.00;;;1.65;;
20423;SDS011;10371;49.042;8.002;2022-09-09T03:39:01;4.80;;;1.70;;
20423;SDS011;10371;49.042;8.002;2022-09-09T03:40:03;3.03;;;1.85;;
20423;SDS011;10371;49.042;8.002;2022-09-09T03:41:04;4.38;;;1.60;;
20423;SDS011;10371;49.042;8.002;2022-09-09T03:42:06;4.30;;;2.10;;
20423;SDS011;10371;49.042;8.002;2022-09-09T03:43:06;2.97;;;1.55;;
20423;SDS011;10371;49.042;8.002;2022-09-09T03:44:07;4.15;;;1.85;;
20423;SDS011;10371;49.042;8.002;2022-09-09T03:45:08;2.80;;;1.58;;
20423;SDS011;10371;49.042;8.002;2022-09-09T03:46:10;4.40;;;1.90;;
20423;SDS011;10371;49.042;8.002;2022-09-09T03:47:10;2.40;;;1.50;;
20423;SDS011;10371;49.042;8.002;2022-09-09T03:48:10;3.20;;;1.58;;
20423;SDS011;10371;49.042;8.002;2022-09-09T03:49:11;3.55;;;1.52;;
20423;SDS011;10371;49.042;8.002;2022-09-09T03:50:12;2.90;;;1.38;;
20423;SDS011;10371;49.042;8.002;2022-09-09T03:51:12;4.05;;;1.30;;
20423;SDS011;10371;49.042;8.002;2022-09-09T03:52:13;3.33;;;1.30;;
20423;SDS011;10371;49.042;8.002;2022-09-09T03:53:15;3.45;;;1.40;;
20423;SDS011;10371;49.042;8.002;2022-09-09T03:54:17;4.53;;;1.45;;
20423;SDS011;10371;49.042;8.002;2022-09-09T03:55:17;2.60;;;1.50;;
20423;SDS011;10371;49.042;8.002;2022-09-09T03:56:17;5.15;;;1.45;;
20423;SDS011;10371;49.042;8.002;2022-09-09T03:57:18;0.82;;;0.80;;
20423;SDS011;10371;49.042;8.002;2022-09-09T03:58:18;2.08;;;1.30;;
20423;SDS011;10371;49.042;8.002;2022-09-09T03:59:19;3.38;;;1.25;;
20423;SDS011;10371;49.042;8.002;2022-09-09T04:00:20;2.50;;;1.30;;
20423;SDS011;10371;49.042;8.002;2022-09-09T04:01:20;2.05;;;1.42;;
20423;SDS011;10371;49.042;8.002;2022-09-09T04:02:21;1.20;;;1.10;;
20423;SDS011;10371;49.042;8.002;2022-09-09T04:03:21;2.05;;;1.10;;
20423;SDS011;10371;49.042;8.002;2022-09-09T04:04:24;3.00;;;1.42;;
20423;SDS011;10371;49.042;8.002;2022-09-09T04:05:26;2.38;;;1.40;;
20423;SDS011;10371;49.042;8.002;2022-09-09T04:06:27;4.03;;;1.70;;
20423;SDS011;10371;49.042;8.002;2022-09-09T04:07:27;2.42;;;1.88;;
20423;SDS011;10371;49.042;8.002;2022-09-09T04:08:28;3.85;;;1.75;;
20423;SDS011;10371;49.042;8.002;2022-09-09T04:09:31;2.10;;;1.85;;
20423;SDS011;10371;49.042;8.002;2022-09-09T04:10:31;4.85;;;1.92;;
20423;SDS011;10371;49.042;8.002;2022-09-09T04:11:31;3.67;;;1.98;;
20423;SDS011;10371;49.042;8.002;2022-09-09T04:12:32;2.20;;;1.67;;
20423;SDS011;10371;49.042;8.002;2022-09-09T04:13:32;2.95;;;1.75;;
20423;SDS011;10371;49.042;8.002;2022-09-09T04:14:34;3.08;;;1.80;;
20423;SDS011;10371;49.042;8.002;2022-09-09T04:15:34;1.92;;;1.40;;
20423;SDS011;10371;49.042;8.002;2022-09-09T04:16:35;5.55;;;1.63;;
20423;SDS011;10371;49.042;8.002;2022-09-09T04:17:37;3.25;;;1.38;;
20423;SDS011;10371;49.042;8.002;2022-09-09T04:18:37;1.90;;;1.35;;
20423;SDS011;10371;49.042;8.002;2022-09-09T04:19:37;2.70;;;1.33;;
20423;SDS011;10371;49.042;8.002;2022-09-09T04:20:38;1.80;;;1.20;;
20423;SDS011;10371;49.042;8.002;2022-09-09T04:21:39;3.33;;;1.40;;
20423;SDS011;10371;49.042;8.002;2022-09-09T04:22:42;2.78;;;1.50;;
20423;SDS011;10371;49.042;8.002;2022-09-09T04:23:42;2.00;;;1.42;;
20423;SDS011;10371;49.042;8.002;2022-09-09T04:24:42;3.42;;;1.70;;
20423;SDS011;10371;49.042;8.002;2022-09-09T04:25:49;4.35;;;1.73;;
20423;SDS011;10371;49.042;8.002;2022-09-09T04:26:51;2.45;;;1.80;;
20423;SDS011;10371;49.042;8.002;2022-09-09T04:27:53;3.35;;;2.00;;
20423;SDS011;10371;49.042;8.002;2022-09-09T04:28:57;3.53;;;1.65;;
20423;SDS011;10371;49.042;8.002;2022-09-09T04:29:57;3.60;;;2.25;;
20423;SDS011;10371;49.042;8.002;2022-09-09T04:31:06;2.78;;;1.75;;
20423;SDS011;10371;49.042;8.002;2022-09-09T04:32:26;3.10;;;1.95;;
20423;SDS011;10371;49.042;8.002;2022-09-09T04:33:27;2.58;;;2.03;;
20423;SDS011;10371;49.042;8.002;2022-09-09T04:34:27;4.70;;;2.33;;
20423;SDS011;10371;49.042;8.002;2022-09-09T04:35:28;2.20;;;2.00;;
20423;SDS011;10371;49.042;8.002;2022-09-09T04:36:29;3.10;;;1.90;;
20423;SDS011;10371;49.042;8.002;2022-09-09T04:37:29;3.97;;;2.17;;
20423;SDS011;10371;49.042;8.002;2022-09-09T04:38:29;3.25;;;1.90;;
20423;SDS011;10371;49.042;8.002;2022-09-09T04:39:30;3.47;;;1.90;;
20423;SDS011;10371;49.042;8.002;2022-09-09T04:40:30;4.05;;;1.70;;
20423;SDS011;10371;49.042;8.002;2022-09-09T04:41:31;4.38;;;2.00;;
20423;SDS011;10371;49.042;8.002;2022-09-09T04:42:34;2.53;;;2.17;;
20423;SDS011;10371;49.042;8.002;2022-09-09T04:43:38;3.15;;;2.13;;
20423;SDS011;10371;49.042;8.002;2022-09-09T04:44:39;3.92;;;2.20;;
20423;SDS011;10371;49.042;8.002;2022-09-09T04:45:43;3.60;;;2.58;;
20423;SDS011;10371;49.042;8.002;2022-09-09T04:46:46;3.40;;;2.65;;
20423;SDS011;10371;49.042;8.002;2022-09-09T04:47:46;3.67;;;2.20;;
20423;SDS011;10371;49.042;8.002;2022-09-09T04:48:47;4.35;;;2.10;;
20423;SDS011;10371;49.042;8.002;2022-09-09T04:49:49;2.42;;;1.90;;
20423;SDS011;10371;49.042;8.002;2022-09-09T04:50:56;3.15;;;2.10;;
20423;SDS011;10371;49.042;8.002;2022-09-09T04:52:01;3.72;;;1.88;;
20423;SDS011;10371;49.042;8.002;2022-09-09T04:53:02;4.72;;;1.80;;
20423;SDS011;10371;49.042;8.002;2022-09-09T04:54:04;2.47;;;1.65;;
20423;SDS011;10371;49.042;8.002;2022-09-09T04:55:05;2.15;;;1.42;;
20423;SDS011;10371;49.042;8.002;2022-09-09T04:57:11;2.75;;;1.10;;
20423;SDS011;10371;49.042;8.002;2022-09-09T04:58:11;3.78;;;1.33;;
20423;SDS011;10371;49.042;8.002;2022-09-09T04:59:11;2.28;;;1.20;;
20423;SDS011;10371;49.042;8.002;2022-09-09T05:00:12;2.58;;;1.42;;
20423;SDS011;10371;49.042;8.002;2022-09-09T05:01:14;1.45;;;1.30;;
20423;SDS011;10371;49.042;8.002;2022-09-09T05:02:18;2.35;;;1.20;;
20423;SDS011;10371;49.042;8.002;2022-09-09T05:03:19;2.80;;;1.58;;
20423;SDS011;10371;49.042;8.002;2022-09-09T05:04:19;2.30;;;1.40;;
20423;SDS011;10371;49.042;8.002;2022-09-09T05:05:19;11.57;;;2.10;;
20423;SDS011;10371;49.042;8.002;2022-09-09T05:06:20;3.90;;;1.80;;
20423;SDS011;10371;49.042;8.002;2022-09-09T05:07:21;3.33;;;1.40;;
20423;SDS011;10371;49.042;8.002;2022-09-09T05:08:22;1.85;;;1.30;;
20423;SDS011;10371;49.042;8.002;2022-09-09T05:09:22;3.00;;;1.25;;
20423;SDS011;10371;49.042;8.002;2022-09-09T05:10:23;3.03;;;1.50;;
20423;SDS011;10371;49.042;8.002;2022-09-09T05:11:24;2.10;;;1.33;;
20423;SDS011;10371;49.042;8.002;2022-09-09T05:12:26;3.35;;;1.48;;
20423;SDS011;10371;49.042;8.002;2022-09-09T05:13:27;3.05;;;1.50;;
20423;SDS011;10371;49.042;8.002;2022-09-09T05:14:27;1.40;;;1.30;;
20423;SDS011;10371;49.042;8.002;2022-09-09T05:15:28;2.45;;;1.50;;
20423;SDS011;10371;49.042;8.002;2022-09-09T05:16:28;2.03;;;1.30;;
20423;SDS011;10371;49.042;8.002;2022-09-09T05:17:30;1.52;;;1.20;;
20423;SDS011;10371;49.042;8.002;2022-09-09T05:18:30;1.40;;;1.10;;
20423;SDS011;10371;49.042;8.002;2022-09-09T05:19:30;1.67;;;1.02;;
20423;SDS011;10371;49.042;8.002;2022-09-09T05:20:31;3.88;;;1.40;;
20423;SDS011;10371;49.042;8.002;2022-09-09T05:21:31;1.20;;;1.08;;
20423;SDS011;10371;49.042;8.002;2022-09-09T05:22:32;2.58;;;1.30;;
20423;SDS011;10371;49.042;8.002;2022-09-09T05:23:33;4.68;;;1.20;;
20423;SDS011;10371;49.042;8.002;2022-09-09T05:24:33;4.00;;;1.55;;
20423;SDS011;10371;49.042;8.002;2022-09-09T05:25:34;2.85;;;1.45;;
20423;SDS011;10371;49.042;8.002;2022-09-09T05:26:34;3.97;;;1.50;;
20423;SDS011;10371;49.042;8.002;2022-09-09T05:27:34;1.60;;;1.27;;
20423;SDS011;10371;49.042;8.002;2022-09-09T05:28:35;2.58;;;1.40;;
20423;SDS011;10371;49.042;8.002;2022-09-09T05:29:35;2.10;;;1.58;;
20423;SDS011;10371;49.042;8.002;2022-09-09T05:30:36;3.65;;;1.40;;
20423;SDS011;10371;49.042;8.002;2022-09-09T05:31:36;2.90;;;1.42;;
20423;SDS011;10371;49.042;8.002;2022-09-09T05:32:36;2.33;;;1.52;;
20423;SDS011;10371;49.042;8.002;2022-09-09T05:33:37;2.20;;;1.38;;
20423;SDS011;10371;49.042;8.002;2022-09-09T05:34:40;3.38;;;1.70;;
20423;SDS011;10371;49.042;8.002;2022-09-09T05:35:40;2.38;;;1.50;;
20423;SDS011;10371;49.042;8.002;2022-09-09T05:36:40;2.40;;;1.48;;
20423;SDS011;10371;49.042;8.002;2022-09-09T05:37:41;3.50;;;1.65;;
20423;SDS011;10371;49.042;8.002;2022-09-09T05:38:41;2.22;;;1.70;;
20423;SDS011;10371;49.042;8.002;2022-09-09T05:39:42;2.45;;;1.65;;
20423;SDS011;10371;49.042;8.002;2022-09-09T05:40:48;2.20;;;1.55;;
20423;SDS011;10371;49.042;8.002;2022-09-09T05:41:50;4.70;;;2.25;;
20423;SDS011;10371;49.042;8.002;2022-09-09T05:42:51;2.25;;;1.75;;
20423;SDS011;10371;49.042;8.002;2022-09-09T05:43:51;3.47;;;1.80;;
20423;SDS011;10371;49.042;8.002;2022-09-09T05:44:51;3.55;;;1.80;;
20423;SDS011;10371;49.042;8.002;2022-09-09T05:47:14;2.35;;;1.60;;
20423;SDS011;10371;49.042;8.002;2022-09-09T05:48:15;3.80;;;1.70;;
20423;SDS011;10371;49.042;8.002;2022-09-09T05:49:15;3.65;;;1.50;;
20423;SDS011;10371;49.042;8.002;2022-09-09T05:50:16;3.50;;;1.55;;
20423;SDS011;10371;49.042;8.002;2022-09-09T05:51:20;4.10;;;1.58;;
20423;SDS011;10371;49.042;8.002;2022-09-09T05:52:22;3.67;;;1.73;;
20423;SDS011;10371;49.042;8.002;2022-09-09T05:53:23;2.83;;;1.35;;
20423;SDS011;10371;49.042;8.002;2022-09-09T05:54:24;1.98;;;1.30;;
20423;SDS011;10371;49.042;8.002;2022-09-09T05:55:24;2.08;;;1.40;;
20423;SDS011;10371;49.042;8.002;2022-09-09T05:56:26;2.33;;;1.38;;
20423;SDS011;10371;49.042;8.002;2022-09-09T05:57:28;2.60;;;1.25;;
20423;SDS011;10371;49.042;8.002;2022-09-09T05:58:28;1.73;;;1.42;;
20423;SDS011;10371;49.042;8.002;2022-09-09T05:59:29;2.88;;;1.30;;
20423;SDS011;10371;49.042;8.002;2022-09-09T06:00:30;2.63;;;1.50;;
20423;SDS011;10371;49.042;8.002;2022-09-09T06:01:32;1.33;;;1.17;;
20423;SDS011;10371;49.042;8.002;2022-09-09T06:02:34;1.98;;;1.30;;
20423;SDS011;10371;49.042;8.002;2022-09-09T06:03:37;3.67;;;1.48;;
20423;SDS011;10371;49.042;8.002;2022-09-09T06:04:39;1.63;;;1.40;;
20423;SDS011;10371;49.042;8.002;2022-09-09T06:05:40;4.88;;;1.60;;
20423;SDS011;10371;49.042;8.002;2022-09-09T06:06:40;1.50;;;1.20;;
20423;SDS011;10371;49.042;8.002;2022-09-09T06:07:42;2.22;;;1.10;;
20423;SDS011;10371;49.042;8.002;2022-09-09T06:08:44;1.67;;;1.40;;
20423;SDS011;10371;49.042;8.002;2022-09-09T06:09:45;3.17;;;1.17;;
20423;SDS011;10371;49.042;8.002;2022-09-09T06:10:45;1.85;;;1.27;;
20423;SDS011;10371;49.042;8.002;2022-09-09T06:11:45;3.42;;;1.50;;
20423;SDS011;10371;49.042;8.002;2022-09-09T06:12:45;1.98;;;1.40;;
20423;SDS011;10371;49.042;8.002;2022-09-09T06:13:46;3.67;;;1.45;;
20423;SDS011;10371;49.042;8.002;2022-09-09T06:14:47;2.60;;;1.50;;
20423;SDS011;10371;49.042;8.002;2022-09-09T06:15:50;3.30;;;1.40;;
20423;SDS011;10371;49.042;8.002;2022-09-09T06:16:52;1.77;;;1.10;;
20423;SDS011;10371;49.042;8.002;2022-09-09T06:17:55;2.60;;;1.30;;
20423;SDS011;10371;49.042;8.002;2022-09-09T06:18:56;2.85;;;1.40;;
20423;SDS011;10371;49.042;8.002;2022-09-09T06:19:57;3.08;;;1.35;;
20423;SDS011;10371;49.042;8.002;2022-09-09T06:20:59;1.88;;;1.30;;
20423;SDS011;10371;49.042;8.002;2022-09-09T06:22:06;1.92;;;1.55;;
20423;SDS011;10371;49.042;8.002;2022-09-09T06:23:06;3.38;;;1.63;;
20423;SDS011;10371;49.042;8.002;2022-09-09T06:24:07;2.50;;;1.70;;
20423;SDS011;10371;49.042;8.002;2022-09-09T06:25:08;3.40;;;1.60;;
20423;SDS011;10371;49.042;8.002;2022-09-09T06:26:19;3.20;;;1.80;;
20423;SDS011;10371;49.042;8.002;2022-09-09T06:27:21;3.05;;;2.15;;
20423;SDS011;10371;49.042;8.002;2022-09-09T06:28:21;3.40;;;2.33;;
20423;SDS011;10371;49.042;8.002;2022-09-09T06:29:21;2.83;;;2.00;;
20423;SDS011;10371;49.042;8.002;2022-09-09T06:30:22;3.25;;;2.60;;
20423;SDS011;10371;49.042;8.002;2022-09-09T06:31:22;2.80;;;2.53;;
20423;SDS011;10371;49.042;8.002;2022-09-09T06:32:24;7.90;;;2.75;;
20423;SDS011;10371;49.042;8.002;2022-09-09T06:33:26;4.53;;;2.78;;
20423;SDS011;10371;49.042;8.002;2022-09-09T06:34:30;4.28;;;2.83;;
20423;SDS011;10371;49.042;8.002;2022-09-09T06:35:30;3.33;;;2.65;;
20423;SDS011;10371;49.042;8.002;2022-09-09T06:36:31;4.85;;;2.78;;
20423;SDS011;10371;49.042;8.002;2022-09-09T06:37:33;3.42;;;2.50;;
20423;SDS011;10371;49.042;8.002;2022-09-09T06:38:33;6.18;;;2.60;;
20423;SDS011;10371;49.042;8.002;2022-09-09T06:39:33;2.92;;;2.40;;
20423;SDS011;10371;49.042;8.002;2022-09-09T06:40:34;3.30;;;2.22;;
20423;SDS011;10371;49.042;8.002;2022-09-09T06:41:35;5.38;;;2.53;;
20423;SDS011;10371;49.042;8.002;2022-09-09T06:42:35;3.13;;;2.20;;
20423;SDS011;10371;49.042;8.002;2022-09-09T06:43:35;3.95;;;2.40;;
20423;SDS011;10371;49.042;8.002;2022-09-09T06:44:35;3.25;;;2.03;;
20423;SDS011;10371;49.042;8.002;2022-09-09T06:45:36;7.18;;;2.42;;
20423;SDS011;10371;49.042;8.002;2022-09-09T06:46:36;4.43;;;1.88;;
20423;SDS011;10371;49.042;8.002;2022-09-09T06:47:36;4.05;;;2.08;;
20423;SDS011;10371;49.042;8.002;2022-09-09T06:48:38;2.88;;;2.00;;
20423;SDS011;10371;49.042;8.002;2022-09-09T06:49:40;3.92;;;1.80;;
20423;SDS011;10371;49.042;8.002;2022-09-09T06:50:40;2.15;;;1.60;;
20423;SDS011;10371;49.042;8.002;2022-09-09T06:51:41;3.35;;;1.90;;
20423;SDS011;10371;49.042;8.002;2022-09-09T06:52:42;2.13;;;1.60;;
20423;SDS011;10371;49.042;8.002;2022-09-09T06:53:49;4.22;;;2.10;;
20423;SDS011;10371;49.042;8.002;2022-09-09T06:54:51;3.88;;;1.75;;
20423;SDS011;10371;49.042;8.002;2022-09-09T06:55:51;4.03;;;1.70;;
20423;SDS011;10371;49.042;8.002;2022-09-09T06:56:51;4.40;;;2.00;;
20423;SDS011;10371;49.042;8.002;2022-09-09T06:57:52;5.00;;;1.85;;
20423;SDS011;10371;49.042;8.002;2022-09-09T06:58:52;3.72;;;1.77;;
20423;SDS011;10371;49.042;8.002;2022-09-09T06:59:53;4.28;;;2.22;;
20423;SDS011;10371;49.042;8.002;2022-09-09T07:01:01;3.75;;;2.22;;
20423;SDS011;10371;49.042;8.002;2022-09-09T07:02:05;3.05;;;2.00;;
20423;SDS011;10371;49.042;8.002;2022-09-09T07:03:07;4.72;;;2.20;;
20423;SDS011;10371;49.042;8.002;2022-09-09T07:04:07;5.93;;;2.63;;
20423;SDS011;10371;49.042;8.002;2022-09-09T07:05:09;4.78;;;2.10;;
20423;SDS011;10371;49.042;8.002;2022-09-09T07:06:13;5.35;;;1.95;;